Time;durP1;ratioP1;P1;durP2;ratioP2;P2;SDS_P1;SDS_P2;PMS_P1;PMS_P2;Temp;Humidity;BMP_temperature;BMP_pressure;BME280_temperature;BME280_humidity;BME280_pressure;Samples;Min_cycle;Max_cycle;Signal;HPM_P1;HPM_P2
2019/10/08 00:00:00;;;;;;;9.9;6.35;;;;;;;6.19;100;95438.32;;;;
2019/10/08 00:01:03;;;;;;;9.9;6.35;;;;;;;6.19;100;95438.32;;;;
2019/10/08 00:02:05;;;;;;;9.9;6.35;;;;;;;6.19;100;95438.32;;;;
2019/10/08 00:03:07;;;;;;;9.9;6.35;;;;;;;6.19;100;95438.32;;;;
2019/10/08 00:04:09;;;;;;;9.9;6.35;;;;;;;6.19;100;95438.32;;;;
2019/10/08 00:05:10;;;;;;;9.9;6.35;;;;;;;6.19;100;95438.32;;;;
2019/10/08 00:06:11;;;;;;;9.9;6.35;;;;;;;6.19;100;95438.32;;;;
2019/10/08 00:07:13;;;;;;;9.9;6.35;;;;;;;6.19;100;95438.32;;;;
2019/10/08 00:08:14;;;;;;;9.9;6.35;;;;;;;6.19;100;95438.32;;;;
2019/10/08 00:09:15;;;;;;;8.25;5.199999;;;;;;;5.99;100;95426.23;;;;
2019/10/08 00:10:17;;;;;;;8.25;5.199999;;;;;;;5.99;100;95426.23;;;;
2019/10/08 00:11:18;;;;;;;8.25;5.199999;;;;;;;5.99;100;95426.23;;;;
2019/10/08 00:12:19;;;;;;;8.25;5.199999;;;;;;;5.99;100;95426.23;;;;
2019/10/08 00:13:20;;;;;;;8.25;5.199999;;;;;;;5.99;100;95426.23;;;;
2019/10/08 00:14:21;;;;;;;8.25;5.199999;;;;;;;5.99;100;95426.23;;;;
2019/10/08 00:15:22;;;;;;;8.25;5.199999;;;;;;;5.99;100;95426.23;;;;
2019/10/08 00:16:23;;;;;;;8.25;5.199999;;;;;;;5.99;100;95426.23;;;;
2019/10/08 00:17:25;;;;;;;8.25;5.199999;;;;;;;5.99;100;95426.23;;;;
2019/10/08 00:18:26;;;;;;;8.25;5.199999;;;;;;;5.99;100;95426.23;;;;
2019/10/08 00:19:27;;;;;;;8.25;5.199999;;;;;;;5.99;100;95426.23;;;;
2019/10/08 00:20:28;;;;;;;8.000002;6.149999;;;;;;;5.91;100;95422.52;;;;
2019/10/08 00:22:26;;;;;;;8.000002;6.149999;;;;;;;5.91;100;95422.52;;;;
2019/10/08 00:23:27;;;;;;;8.000002;6.149999;;;;;;;5.91;100;95422.52;;;;
2019/10/08 00:25:32;;;;;;;8.000002;6.149999;;;;;;;5.91;100;95422.52;;;;
2019/10/08 00:26:33;;;;;;;8.000002;6.149999;;;;;;;5.91;100;95422.52;;;;
2019/10/08 00:27:34;;;;;;;8.000002;6.149999;;;;;;;5.91;100;95422.52;;;;
2019/10/08 00:28:35;;;;;;;8.000002;6.149999;;;;;;;5.91;100;95422.52;;;;
2019/10/08 00:29:36;;;;;;;8.000002;6.149999;;;;;;;5.91;100;95422.52;;;;
2019/10/08 00:30:37;;;;;;;8.350001;6.200001;;;;;;;5.79;100;95411.56;;;;
2019/10/08 00:31:39;;;;;;;8.350001;6.200001;;;;;;;5.79;100;95411.56;;;;
2019/10/08 00:32:40;;;;;;;8.350001;6.200001;;;;;;;5.79;100;95411.56;;;;
2019/10/08 00:33:41;;;;;;;8.350001;6.200001;;;;;;;5.79;100;95411.56;;;;
2019/10/08 00:34:43;;;;;;;8.350001;6.200001;;;;;;;5.79;100;95411.56;;;;
2019/10/08 00:35:44;;;;;;;8.350001;6.200001;;;;;;;5.79;100;95411.56;;;;
2019/10/08 00:37:01;;;;;;;8.350001;6.200001;;;;;;;5.79;100;95411.56;;;;
2019/10/08 00:38:02;;;;;;;8.350001;6.200001;;;;;;;5.79;100;95411.56;;;;
2019/10/08 00:39:04;;;;;;;8.350001;6.200001;;;;;;;5.79;100;95411.56;;;;
2019/10/08 00:40:32;;;;;;;8.350001;6.200001;;;;;;;5.79;100;95411.56;;;;
2019/10/08 00:41:33;;;;;;;8.050001;5.699999;;;;;;;5.7;100;95422.54;;;;
2019/10/08 00:42:34;;;;;;;8.050001;5.699999;;;;;;;5.7;100;95422.54;;;;
2019/10/08 00:43:35;;;;;;;8.050001;5.699999;;;;;;;5.7;100;95422.54;;;;
2019/10/08 00:44:37;;;;;;;8.050001;5.699999;;;;;;;5.7;100;95422.54;;;;
2019/10/08 00:45:38;;;;;;;8.050001;5.699999;;;;;;;5.7;100;95422.54;;;;
2019/10/08 00:46:39;;;;;;;8.050001;5.699999;;;;;;;5.7;100;95422.54;;;;
2019/10/08 00:47:40;;;;;;;8.050001;5.699999;;;;;;;5.7;100;95422.54;;;;
2019/10/08 00:48:41;;;;;;;8.050001;5.699999;;;;;;;5.7;100;95422.54;;;;
2019/10/08 00:49:43;;;;;;;8.050001;5.699999;;;;;;;5.7;100;95422.54;;;;
2019/10/08 00:50:44;;;;;;;8.050001;5.699999;;;;;;;5.7;100;95422.54;;;;
2019/10/08 00:51:45;;;;;;;6.4;5.2;;;;;;;5.72;100;95436.17;;;;
2019/10/08 00:52:46;;;;;;;6.4;5.2;;;;;;;5.72;100;95436.17;;;;
2019/10/08 00:53:47;;;;;;;6.4;5.2;;;;;;;5.72;100;95436.17;;;;
2019/10/08 00:54:48;;;;;;;6.4;5.2;;;;;;;5.72;100;95436.17;;;;
2019/10/08 00:55:49;;;;;;;6.4;5.2;;;;;;;5.72;100;95436.17;;;;
2019/10/08 00:56:51;;;;;;;6.4;5.2;;;;;;;5.72;100;95436.17;;;;
2019/10/08 00:57:52;;;;;;;6.4;5.2;;;;;;;5.72;100;95436.17;;;;
2019/10/08 00:58:53;;;;;;;6.4;5.2;;;;;;;5.72;100;95436.17;;;;
2019/10/08 00:59:54;;;;;;;6.4;5.2;;;;;;;5.72;100;95436.17;;;;
2019/10/08 01:00:55;;;;;;;6.4;5.2;;;;;;;5.72;100;95436.17;;;;
2019/10/08 01:01:56;;;;;;;6.4;5.2;;;;;;;5.72;100;95436.17;;;;
2019/10/08 01:02:57;;;;;;;8.7;4.599999;;;;;;;6;100;95424.81;;;;
2019/10/08 01:03:59;;;;;;;8.7;4.599999;;;;;;;6;100;95424.81;;;;
2019/10/08 01:05:00;;;;;;;8.7;4.599999;;;;;;;6;100;95424.81;;;;
2019/10/08 01:06:02;;;;;;;8.7;4.599999;;;;;;;6;100;95424.81;;;;
2019/10/08 01:07:03;;;;;;;8.7;4.599999;;;;;;;6;100;95424.81;;;;
2019/10/08 01:08:06;;;;;;;8.7;4.599999;;;;;;;6;100;95424.81;;;;
2019/10/08 01:09:11;;;;;;;8.7;4.599999;;;;;;;6;100;95424.81;;;;
2019/10/08 01:10:13;;;;;;;8.7;4.599999;;;;;;;6;100;95424.81;;;;
2019/10/08 01:11:14;;;;;;;8.7;4.599999;;;;;;;6;100;95424.81;;;;
2019/10/08 01:12:15;;;;;;;8.7;4.599999;;;;;;;6;100;95424.81;;;;
2019/10/08 01:13:16;;;;;;;4.85;4.1;;;;;;;6.17;100;95403.68;;;;
2019/10/08 01:14:18;;;;;;;4.85;4.1;;;;;;;6.17;100;95403.68;;;;
2019/10/08 01:15:19;;;;;;;4.85;4.1;;;;;;;6.17;100;95403.68;;;;
2019/10/08 01:16:20;;;;;;;4.85;4.1;;;;;;;6.17;100;95403.68;;;;
2019/10/08 01:17:22;;;;;;;4.85;4.1;;;;;;;6.17;100;95403.68;;;;
2019/10/08 01:18:35;;;;;;;4.85;4.1;;;;;;;6.17;100;95403.68;;;;
2019/10/08 01:19:37;;;;;;;4.85;4.1;;;;;;;6.17;100;95403.68;;;;
2019/10/08 01:20:42;;;;;;;4.85;4.1;;;;;;;6.17;100;95403.68;;;;
2019/10/08 01:21:45;;;;;;;4.85;4.1;;;;;;;6.17;100;95403.68;;;;
2019/10/08 01:22:47;;;;;;;4.85;4.1;;;;;;;6.17;100;95403.68;;;;
2019/10/08 01:23:48;;;;;;;4.500001;3.85;;;;;;;6.31;100;95395.94;;;;
2019/10/08 01:24:49;;;;;;;4.500001;3.85;;;;;;;6.31;100;95395.94;;;;
2019/10/08 01:25:51;;;;;;;4.500001;3.85;;;;;;;6.31;100;95395.94;;;;
2019/10/08 01:26:52;;;;;;;4.500001;3.85;;;;;;;6.31;100;95395.94;;;;
2019/10/08 01:27:53;;;;;;;4.500001;3.85;;;;;;;6.31;100;95395.94;;;;
2019/10/08 01:28:54;;;;;;;4.500001;3.85;;;;;;;6.31;100;95395.94;;;;
2019/10/08 01:29:55;;;;;;;4.500001;3.85;;;;;;;6.31;100;95395.94;;;;
2019/10/08 01:30:57;;;;;;;4.500001;3.85;;;;;;;6.31;100;95395.94;;;;
2019/10/08 01:31:58;;;;;;;4.500001;3.85;;;;;;;6.31;100;95395.94;;;;
2019/10/08 01:33:00;;;;;;;4.500001;3.85;;;;;;;6.31;100;95395.94;;;;
2019/10/08 01:34:01;;;;;;;5.7;3.65;;;;;;;6.33;100;95401.5;;;;
2019/10/08 01:35:02;;;;;;;5.7;3.65;;;;;;;6.33;100;95401.5;;;;
2019/10/08 01:36:30;;;;;;;5.7;3.65;;;;;;;6.33;100;95401.5;;;;
2019/10/08 01:37:31;;;;;;;5.7;3.65;;;;;;;6.33;100;95401.5;;;;
2019/10/08 01:38:33;;;;;;;5.7;3.65;;;;;;;6.33;100;95401.5;;;;
2019/10/08 01:39:35;;;;;;;5.7;3.65;;;;;;;6.33;100;95401.5;;;;
2019/10/08 01:40:36;;;;;;;5.7;3.65;;;;;;;6.33;100;95401.5;;;;
2019/10/08 01:41:37;;;;;;;5.7;3.65;;;;;;;6.33;100;95401.5;;;;
2019/10/08 01:43:24;;;;;;;5.7;3.65;;;;;;;6.33;100;95401.5;;;;
2019/10/08 01:44:26;;;;;;;6.299999;3.5;;;;;;;6.4;100;95390.29;;;;
2019/10/08 01:45:27;;;;;;;6.299999;3.5;;;;;;;6.4;100;95390.29;;;;
2019/10/08 01:47:31;;;;;;;6.299999;3.5;;;;;;;6.4;100;95390.29;;;;
2019/10/08 01:48:33;;;;;;;6.299999;3.5;;;;;;;6.4;100;95390.29;;;;
2019/10/08 01:49:36;;;;;;;6.299999;3.5;;;;;;;6.4;100;95390.29;;;;
2019/10/08 01:50:37;;;;;;;6.299999;3.5;;;;;;;6.4;100;95390.29;;;;
2019/10/08 01:51:38;;;;;;;6.299999;3.5;;;;;;;6.4;100;95390.29;;;;
2019/10/08 01:52:39;;;;;;;6.299999;3.5;;;;;;;6.4;100;95390.29;;;;
2019/10/08 01:53:41;;;;;;;6.299999;3.5;;;;;;;6.4;100;95390.29;;;;
2019/10/08 01:54:44;;;;;;;6.299999;3.5;;;;;;;6.4;100;95390.29;;;;
2019/10/08 01:55:46;;;;;;;4.949999;3.45;;;;;;;6.49;100;95383.26;;;;
2019/10/08 01:56:47;;;;;;;4.949999;3.45;;;;;;;6.49;100;95383.26;;;;
2019/10/08 01:57:48;;;;;;;4.949999;3.45;;;;;;;6.49;100;95383.26;;;;
2019/10/08 01:58:49;;;;;;;4.949999;3.45;;;;;;;6.49;100;95383.26;;;;
2019/10/08 01:59:51;;;;;;;4.949999;3.45;;;;;;;6.49;100;95383.26;;;;
2019/10/08 02:00:53;;;;;;;4.949999;3.45;;;;;;;6.49;100;95383.26;;;;
2019/10/08 02:01:54;;;;;;;4.949999;3.45;;;;;;;6.49;100;95383.26;;;;
2019/10/08 02:02:56;;;;;;;4.949999;3.45;;;;;;;6.49;100;95383.26;;;;
2019/10/08 02:03:57;;;;;;;4.949999;3.45;;;;;;;6.49;100;95383.26;;;;
2019/10/08 02:04:58;;;;;;;4.949999;3.45;;;;;;;6.49;100;95383.26;;;;
2019/10/08 02:06:00;;;;;;;4;3.149999;;;;;;;6.61;100;95377.56;;;;
2019/10/08 02:07:01;;;;;;;4;3.149999;;;;;;;6.61;100;95377.56;;;;
2019/10/08 02:08:02;;;;;;;4;3.149999;;;;;;;6.61;100;95377.56;;;;
2019/10/08 02:09:03;;;;;;;4;3.149999;;;;;;;6.61;100;95377.56;;;;
2019/10/08 02:10:05;;;;;;;4;3.149999;;;;;;;6.61;100;95377.56;;;;
2019/10/08 02:11:07;;;;;;;4;3.149999;;;;;;;6.61;100;95377.56;;;;
2019/10/08 02:12:08;;;;;;;4;3.149999;;;;;;;6.61;100;95377.56;;;;
2019/10/08 02:13:10;;;;;;;4;3.149999;;;;;;;6.61;100;95377.56;;;;
2019/10/08 02:14:11;;;;;;;4;3.149999;;;;;;;6.61;100;95377.56;;;;
2019/10/08 02:15:12;;;;;;;4;3.149999;;;;;;;6.61;100;95377.56;;;;
2019/10/08 02:16:13;;;;;;;4;3.149999;;;;;;;6.61;100;95377.56;;;;
2019/10/08 02:17:15;;;;;;;4.9;3.45;;;;;;;6.67;100;95371.37;;;;
2019/10/08 02:18:16;;;;;;;4.9;3.45;;;;;;;6.67;100;95371.37;;;;
2019/10/08 02:19:17;;;;;;;4.9;3.45;;;;;;;6.67;100;95371.37;;;;
2019/10/08 02:20:18;;;;;;;4.9;3.45;;;;;;;6.67;100;95371.37;;;;
2019/10/08 02:21:20;;;;;;;4.9;3.45;;;;;;;6.67;100;95371.37;;;;
2019/10/08 02:22:21;;;;;;;4.9;3.45;;;;;;;6.67;100;95371.37;;;;
2019/10/08 02:23:22;;;;;;;4.9;3.45;;;;;;;6.67;100;95371.37;;;;
2019/10/08 02:24:23;;;;;;;4.9;3.45;;;;;;;6.67;100;95371.37;;;;
2019/10/08 02:25:25;;;;;;;4.9;3.45;;;;;;;6.67;100;95371.37;;;;
2019/10/08 02:26:26;;;;;;;4.9;3.45;;;;;;;6.67;100;95371.37;;;;
2019/10/08 02:27:27;;;;;;;3.75;3;;;;;;;6.77;100;95373.5;;;;
2019/10/08 02:28:28;;;;;;;3.75;3;;;;;;;6.77;100;95373.5;;;;
2019/10/08 02:29:29;;;;;;;3.75;3;;;;;;;6.77;100;95373.5;;;;
2019/10/08 02:30:30;;;;;;;3.75;3;;;;;;;6.77;100;95373.5;;;;
2019/10/08 02:31:32;;;;;;;3.75;3;;;;;;;6.77;100;95373.5;;;;
2019/10/08 02:32:33;;;;;;;3.75;3;;;;;;;6.77;100;95373.5;;;;
2019/10/08 02:33:34;;;;;;;3.75;3;;;;;;;6.77;100;95373.5;;;;
2019/10/08 02:34:35;;;;;;;3.75;3;;;;;;;6.77;100;95373.5;;;;
2019/10/08 02:35:36;;;;;;;3.75;3;;;;;;;6.77;100;95373.5;;;;
2019/10/08 02:36:38;;;;;;;3.75;3;;;;;;;6.77;100;95373.5;;;;
2019/10/08 02:37:39;;;;;;;5.799999;3.1;;;;;;;6.8;100;95355.63;;;;
2019/10/08 02:38:40;;;;;;;5.799999;3.1;;;;;;;6.8;100;95355.63;;;;
2019/10/08 02:39:41;;;;;;;5.799999;3.1;;;;;;;6.8;100;95355.63;;;;
2019/10/08 02:40:42;;;;;;;5.799999;3.1;;;;;;;6.8;100;95355.63;;;;
2019/10/08 02:41:44;;;;;;;5.799999;3.1;;;;;;;6.8;100;95355.63;;;;
2019/10/08 02:42:45;;;;;;;5.799999;3.1;;;;;;;6.8;100;95355.63;;;;
2019/10/08 02:49:50;;;;;;;4.7;2.95;;;;;;;6.87;100;95347.97;;;;
2019/10/08 02:50:54;;;;;;;4.7;2.95;;;;;;;6.87;100;95347.97;;;;
2019/10/08 02:55:00;;;;;;;4.7;2.95;;;;;;;6.87;100;95347.97;;;;
2019/10/08 02:56:03;;;;;;;4.7;2.95;;;;;;;6.87;100;95347.97;;;;
2019/10/08 02:57:07;;;;;;;4.7;2.95;;;;;;;6.87;100;95347.97;;;;
2019/10/08 02:59:03;;;;;;;3.7;2.8;;;;;;;6.87;100;95347.97;;;;
2019/10/08 03:01:08;;;;;;;3.7;2.8;;;;;;;6.87;100;95347.97;;;;
2019/10/08 03:02:10;;;;;;;3.7;2.8;;;;;;;6.87;100;95347.97;;;;
2019/10/08 03:03:21;;;;;;;3.7;2.8;;;;;;;6.87;100;95347.97;;;;
2019/10/08 03:04:24;;;;;;;3.7;2.8;;;;;;;6.87;100;95347.97;;;;
2019/10/08 03:05:25;;;;;;;3.7;2.8;;;;;;;6.87;100;95347.97;;;;
2019/10/08 03:06:31;;;;;;;3.7;2.8;;;;;;;6.87;100;95347.97;;;;
2019/10/08 03:07:32;;;;;;;3.7;2.8;;;;;;;6.87;100;95347.97;;;;
2019/10/08 03:08:37;;;;;;;3.7;2.8;;;;;;;6.87;100;95347.97;;;;
2019/10/08 03:09:38;;;;;;;4.05;2.45;;;;;;;6.92;100;95353.13;;;;
2019/10/08 03:10:40;;;;;;;4.05;2.45;;;;;;;6.92;100;95353.13;;;;
2019/10/08 03:11:42;;;;;;;4.05;2.45;;;;;;;6.92;100;95353.13;;;;
2019/10/08 03:12:43;;;;;;;4.05;2.45;;;;;;;6.92;100;95353.13;;;;
2019/10/08 03:13:44;;;;;;;4.05;2.45;;;;;;;6.92;100;95353.13;;;;
2019/10/08 03:14:45;;;;;;;4.05;2.45;;;;;;;6.92;100;95353.13;;;;
2019/10/08 03:15:46;;;;;;;4.05;2.45;;;;;;;6.92;100;95353.13;;;;
2019/10/08 03:16:47;;;;;;;4.05;2.45;;;;;;;6.92;100;95353.13;;;;
2019/10/08 03:17:48;;;;;;;4.05;2.45;;;;;;;6.92;100;95353.13;;;;
2019/10/08 03:18:49;;;;;;;4.05;2.45;;;;;;;6.92;100;95353.13;;;;
2019/10/08 03:19:51;;;;;;;4.05;2.45;;;;;;;6.92;100;95353.13;;;;
2019/10/08 03:20:52;;;;;;;4.4;2.5;;;;;;;6.86;100;95345.4;;;;
2019/10/08 03:21:56;;;;;;;4.4;2.5;;;;;;;6.86;100;95345.4;;;;
2019/10/08 03:23:03;;;;;;;4.4;2.5;;;;;;;6.86;100;95345.4;;;;
2019/10/08 03:25:13;;;;;;;4.4;2.5;;;;;;;6.86;100;95345.4;;;;
2019/10/08 03:31:26;;;;;;;3.5;2.4;;;;;;;6.7;100;95337.41;;;;
2019/10/08 03:32:27;;;;;;;3.5;2.4;;;;;;;6.7;100;95337.41;;;;
2019/10/08 03:33:29;;;;;;;3.5;2.4;;;;;;;6.7;100;95337.41;;;;
2019/10/08 03:34:30;;;;;;;3.5;2.4;;;;;;;6.7;100;95337.41;;;;
2019/10/08 03:35:31;;;;;;;3.5;2.4;;;;;;;6.7;100;95337.41;;;;
2019/10/08 03:40:32;;;;;;;3.5;2.4;;;;;;;6.7;100;95337.41;;;;
2019/10/08 03:41:35;;;;;;;5.1;2.75;;;;;;;6.41;100;95324.97;;;;
2019/10/08 03:42:36;;;;;;;5.1;2.75;;;;;;;6.41;100;95324.97;;;;
2019/10/08 03:43:37;;;;;;;5.1;2.75;;;;;;;6.41;100;95324.97;;;;
2019/10/08 03:44:38;;;;;;;5.1;2.75;;;;;;;6.41;100;95324.97;;;;
2019/10/08 03:45:39;;;;;;;5.1;2.75;;;;;;;6.41;100;95324.97;;;;
2019/10/08 03:46:41;;;;;;;5.1;2.75;;;;;;;6.41;100;95324.97;;;;
2019/10/08 03:47:44;;;;;;;5.1;2.75;;;;;;;6.41;100;95324.97;;;;
2019/10/08 03:51:09;;;;;;;5.1;2.75;;;;;;;6.41;100;95324.97;;;;
2019/10/08 03:52:53;;;;;;;5.5;2.8;;;;;;;6.18;100;95315.55;;;;
2019/10/08 03:53:54;;;;;;;5.5;2.8;;;;;;;6.18;100;95315.55;;;;
2019/10/08 03:54:55;;;;;;;5.5;2.8;;;;;;;6.18;100;95315.55;;;;
2019/10/08 03:55:57;;;;;;;5.5;2.8;;;;;;;6.18;100;95315.55;;;;
2019/10/08 03:58:53;;;;;;;5.5;2.8;;;;;;;6.18;100;95315.55;;;;
2019/10/08 03:59:55;;;;;;;5.5;2.8;;;;;;;6.18;100;95315.55;;;;
2019/10/08 04:00:59;;;;;;;5.5;2.8;;;;;;;6.18;100;95315.55;;;;
2019/10/08 04:02:01;;;;;;;5.5;2.8;;;;;;;6.18;100;95315.55;;;;
2019/10/08 04:03:50;;;;;;;3.2;2.8;;;;;;;5.97;100;95300.62;;;;
2019/10/08 04:05:40;;;;;;;3.2;2.8;;;;;;;5.97;100;95300.62;;;;
2019/10/08 04:06:59;;;;;;;3.2;2.8;;;;;;;5.97;100;95300.62;;;;
2019/10/08 04:10:09;;;;;;;3.2;2.8;;;;;;;5.97;100;95300.62;;;;
2019/10/08 04:18:29;;;;;;;3.2;2.65;;;;;;;5.86;100;95304.85;;;;
2019/10/08 04:24:14;;;;;;;5.2;3.1;;;;;;;5.72;100;95298.22;;;;
2019/10/08 04:25:36;;;;;;;5.2;3.1;;;;;;;5.72;100;95298.22;;;;
2019/10/08 04:26:43;;;;;;;5.2;3.1;;;;;;;5.72;100;95298.22;;;;
2019/10/08 04:33:11;;;;;;;5.2;3.1;;;;;;;5.72;100;95298.22;;;;
2019/10/08 04:34:59;;;;;;;5.2;3.3;;;;;;;5.67;100;95275.22;;;;
2019/10/08 04:36:45;;;;;;;5.2;3.3;;;;;;;5.67;100;95275.22;;;;
2019/10/08 04:39:44;;;;;;;5.2;3.3;;;;;;;5.67;100;95275.22;;;;
2019/10/08 04:40:46;;;;;;;5.2;3.3;;;;;;;5.67;100;95275.22;;;;
2019/10/08 04:42:03;;;;;;;5.2;3.3;;;;;;;5.67;100;95275.22;;;;
2019/10/08 04:43:08;;;;;;;5.2;3.3;;;;;;;5.67;100;95275.22;;;;
2019/10/08 04:44:09;;;;;;;5.2;3.3;;;;;;;5.67;100;95275.22;;;;
2019/10/08 04:47:05;;;;;;;4.449999;3.35;;;;;;;5.57;100;95271.64;;;;
2019/10/08 04:48:19;;;;;;;4.449999;3.35;;;;;;;5.57;100;95271.64;;;;
2019/10/08 04:52:20;;;;;;;4.449999;3.35;;;;;;;5.57;100;95271.64;;;;
2019/10/08 04:53:57;;;;;;;4.449999;3.35;;;;;;;5.57;100;95271.64;;;;
2019/10/08 04:55:18;;;;;;;4.449999;3.35;;;;;;;5.57;100;95271.64;;;;
2019/10/08 05:04:29;;;;;;;5.349999;3.5;;;;;;;5.62;100;95273.27;;;;
2019/10/08 05:13:44;;;;;;;5.8;3.5;;;;;;;5.56;100;95257.09;;;;
2019/10/08 05:19:02;;;;;;;4.45;3.8;;;;;;;5.66;100;95257.01;;;;
2019/10/08 05:20:03;;;;;;;4.45;3.8;;;;;;;5.66;100;95257.01;;;;
2019/10/08 05:21:05;;;;;;;4.45;3.8;;;;;;;5.66;100;95257.01;;;;
2019/10/08 05:22:06;;;;;;;4.45;3.8;;;;;;;5.66;100;95257.01;;;;
2019/10/08 05:23:07;;;;;;;4.45;3.8;;;;;;;5.66;100;95257.01;;;;
2019/10/08 05:24:09;;;;;;;4.45;3.8;;;;;;;5.66;100;95257.01;;;;
2019/10/08 05:25:10;;;;;;;4.45;3.8;;;;;;;5.66;100;95257.01;;;;
2019/10/08 05:26:11;;;;;;;4.45;3.8;;;;;;;5.66;100;95257.01;;;;
2019/10/08 05:27:13;;;;;;;4.45;3.8;;;;;;;5.66;100;95257.01;;;;
2019/10/08 05:28:14;;;;;;;6.55;3.75;;;;;;;5.77;100;95251.54;;;;
2019/10/08 05:29:16;;;;;;;6.55;3.75;;;;;;;5.77;100;95251.54;;;;
2019/10/08 05:30:17;;;;;;;6.55;3.75;;;;;;;5.77;100;95251.54;;;;
2019/10/08 05:31:18;;;;;;;6.55;3.75;;;;;;;5.77;100;95251.54;;;;
2019/10/08 05:32:19;;;;;;;6.55;3.75;;;;;;;5.77;100;95251.54;;;;
2019/10/08 05:33:20;;;;;;;6.55;3.75;;;;;;;5.77;100;95251.54;;;;
2019/10/08 05:34:22;;;;;;;6.55;3.75;;;;;;;5.77;100;95251.54;;;;
2019/10/08 05:35:23;;;;;;;6.55;3.75;;;;;;;5.77;100;95251.54;;;;
2019/10/08 05:36:25;;;;;;;6.55;3.75;;;;;;;5.77;100;95251.54;;;;
2019/10/08 05:37:26;;;;;;;6.55;3.75;;;;;;;5.77;100;95251.54;;;;
2019/10/08 05:38:28;;;;;;;7.2;4.45;;;;;;;6.06;100;95250.72;;;;
2019/10/08 05:39:29;;;;;;;7.2;4.45;;;;;;;6.06;100;95250.72;;;;
2019/10/08 05:40:30;;;;;;;7.2;4.45;;;;;;;6.06;100;95250.72;;;;
2019/10/08 05:41:31;;;;;;;7.2;4.45;;;;;;;6.06;100;95250.72;;;;
2019/10/08 05:42:32;;;;;;;7.2;4.45;;;;;;;6.06;100;95250.72;;;;
2019/10/08 05:43:34;;;;;;;7.2;4.45;;;;;;;6.06;100;95250.72;;;;
2019/10/08 05:44:35;;;;;;;7.2;4.45;;;;;;;6.06;100;95250.72;;;;
2019/10/08 05:45:36;;;;;;;7.2;4.45;;;;;;;6.06;100;95250.72;;;;
2019/10/08 05:46:37;;;;;;;7.2;4.45;;;;;;;6.06;100;95250.72;;;;
2019/10/08 05:47:39;;;;;;;7.2;4.45;;;;;;;6.06;100;95250.72;;;;
2019/10/08 05:48:40;;;;;;;6.2;4.099999;;;;;;;6.42;100;95256.8;;;;
2019/10/08 05:49:41;;;;;;;6.2;4.099999;;;;;;;6.42;100;95256.8;;;;
2019/10/08 05:50:42;;;;;;;6.2;4.099999;;;;;;;6.42;100;95256.8;;;;
2019/10/08 05:51:44;;;;;;;6.2;4.099999;;;;;;;6.42;100;95256.8;;;;
2019/10/08 05:52:45;;;;;;;6.2;4.099999;;;;;;;6.42;100;95256.8;;;;
2019/10/08 05:53:46;;;;;;;6.2;4.099999;;;;;;;6.42;100;95256.8;;;;
2019/10/08 05:54:47;;;;;;;6.2;4.099999;;;;;;;6.42;100;95256.8;;;;
2019/10/08 05:55:48;;;;;;;6.2;4.099999;;;;;;;6.42;100;95256.8;;;;
2019/10/08 05:56:50;;;;;;;6.2;4.099999;;;;;;;6.42;100;95256.8;;;;
2019/10/08 05:57:51;;;;;;;6.2;4.099999;;;;;;;6.42;100;95256.8;;;;
2019/10/08 05:58:52;;;;;;;6.2;4.099999;;;;;;;6.42;100;95256.8;;;;
2019/10/08 05:59:53;;;;;;;5.3;3.6;;;;;;;6.73;100;95271.66;;;;
2019/10/08 06:00:54;;;;;;;5.3;3.6;;;;;;;6.73;100;95271.66;;;;
2019/10/08 06:01:55;;;;;;;5.3;3.6;;;;;;;6.73;100;95271.66;;;;
2019/10/08 06:02:56;;;;;;;5.3;3.6;;;;;;;6.73;100;95271.66;;;;
2019/10/08 06:03:58;;;;;;;5.3;3.6;;;;;;;6.73;100;95271.66;;;;
2019/10/08 06:04:59;;;;;;;5.3;3.6;;;;;;;6.73;100;95271.66;;;;
2019/10/08 06:06:00;;;;;;;5.3;3.6;;;;;;;6.73;100;95271.66;;;;
2019/10/08 06:07:01;;;;;;;5.3;3.6;;;;;;;6.73;100;95271.66;;;;
2019/10/08 06:08:03;;;;;;;5.3;3.6;;;;;;;6.73;100;95271.66;;;;
2019/10/08 06:09:06;;;;;;;5.3;3.6;;;;;;;6.73;100;95271.66;;;;
2019/10/08 06:10:11;;;;;;;4.65;3.4;;;;;;;6.98;100;95266.91;;;;
2019/10/08 06:11:14;;;;;;;4.65;3.4;;;;;;;6.98;100;95266.91;;;;
2019/10/08 06:12:15;;;;;;;4.65;3.4;;;;;;;6.98;100;95266.91;;;;
2019/10/08 06:13:16;;;;;;;4.65;3.4;;;;;;;6.98;100;95266.91;;;;
2019/10/08 06:14:17;;;;;;;4.65;3.4;;;;;;;6.98;100;95266.91;;;;
2019/10/08 06:15:18;;;;;;;4.65;3.4;;;;;;;6.98;100;95266.91;;;;
2019/10/08 06:16:20;;;;;;;4.65;3.4;;;;;;;6.98;100;95266.91;;;;
2019/10/08 06:17:21;;;;;;;4.65;3.4;;;;;;;6.98;100;95266.91;;;;
2019/10/08 06:18:22;;;;;;;4.65;3.4;;;;;;;6.98;100;95266.91;;;;
2019/10/08 06:19:23;;;;;;;4.65;3.4;;;;;;;6.98;100;95266.91;;;;
2019/10/08 06:20:24;;;;;;;6.6;3.6;;;;;;;7.29;100;95256.19;;;;
2019/10/08 06:21:25;;;;;;;6.6;3.6;;;;;;;7.29;100;95256.19;;;;
2019/10/08 06:22:26;;;;;;;6.6;3.6;;;;;;;7.29;100;95256.19;;;;
2019/10/08 06:23:28;;;;;;;6.6;3.6;;;;;;;7.29;100;95256.19;;;;
2019/10/08 06:24:29;;;;;;;6.6;3.6;;;;;;;7.29;100;95256.19;;;;
2019/10/08 06:25:30;;;;;;;6.6;3.6;;;;;;;7.29;100;95256.19;;;;
2019/10/08 06:26:31;;;;;;;6.6;3.6;;;;;;;7.29;100;95256.19;;;;
2019/10/08 06:27:32;;;;;;;6.6;3.6;;;;;;;7.29;100;95256.19;;;;
2019/10/08 06:28:33;;;;;;;6.6;3.6;;;;;;;7.29;100;95256.19;;;;
2019/10/08 06:29:34;;;;;;;6.6;3.6;;;;;;;7.29;100;95256.19;;;;
2019/10/08 06:30:35;;;;;;;6.6;3.6;;;;;;;7.29;100;95256.19;;;;
2019/10/08 06:31:37;;;;;;;7.2;3.3;;;;;;;7.49;100;95249.24;;;;
2019/10/08 06:32:38;;;;;;;7.2;3.3;;;;;;;7.49;100;95249.24;;;;
2019/10/08 06:33:39;;;;;;;7.2;3.3;;;;;;;7.49;100;95249.24;;;;
2019/10/08 06:34:40;;;;;;;7.2;3.3;;;;;;;7.49;100;95249.24;;;;
2019/10/08 06:35:41;;;;;;;7.2;3.3;;;;;;;7.49;100;95249.24;;;;
2019/10/08 06:36:43;;;;;;;7.2;3.3;;;;;;;7.49;100;95249.24;;;;
2019/10/08 06:37:44;;;;;;;7.2;3.3;;;;;;;7.49;100;95249.24;;;;
2019/10/08 06:38:45;;;;;;;7.2;3.3;;;;;;;7.49;100;95249.24;;;;
2019/10/08 06:39:46;;;;;;;7.2;3.3;;;;;;;7.49;100;95249.24;;;;
2019/10/08 06:40:47;;;;;;;7.2;3.3;;;;;;;7.49;100;95249.24;;;;
2019/10/08 06:41:48;;;;;;;4.2;2.900001;;;;;;;7.76;100;95235.49;;;;
2019/10/08 06:42:49;;;;;;;4.2;2.900001;;;;;;;7.76;100;95235.49;;;;
2019/10/08 06:43:51;;;;;;;4.2;2.900001;;;;;;;7.76;100;95235.49;;;;
2019/10/08 06:44:52;;;;;;;4.2;2.900001;;;;;;;7.76;100;95235.49;;;;
2019/10/08 06:45:53;;;;;;;4.2;2.900001;;;;;;;7.76;100;95235.49;;;;
2019/10/08 06:46:56;;;;;;;4.2;2.900001;;;;;;;7.76;100;95235.49;;;;
2019/10/08 06:47:57;;;;;;;4.2;2.900001;;;;;;;7.76;100;95235.49;;;;
2019/10/08 06:48:59;;;;;;;4.2;2.900001;;;;;;;7.76;100;95235.49;;;;
2019/10/08 06:50:00;;;;;;;4.2;2.900001;;;;;;;7.76;100;95235.49;;;;
2019/10/08 06:51:01;;;;;;;4.2;2.900001;;;;;;;7.76;100;95235.49;;;;
2019/10/08 06:52:02;;;;;;;4.2;2.900001;;;;;;;7.76;100;95235.49;;;;
2019/10/08 06:53:03;;;;;;;6.199999;3.2;;;;;;;8.21;100;95223.47;;;;
2019/10/08 06:54:06;;;;;;;6.199999;3.2;;;;;;;8.21;100;95223.47;;;;
2019/10/08 06:55:07;;;;;;;6.199999;3.2;;;;;;;8.21;100;95223.47;;;;
2019/10/08 06:56:08;;;;;;;6.199999;3.2;;;;;;;8.21;100;95223.47;;;;
2019/10/08 06:57:09;;;;;;;6.199999;3.2;;;;;;;8.21;100;95223.47;;;;
2019/10/08 06:58:10;;;;;;;6.199999;3.2;;;;;;;8.21;100;95223.47;;;;
2019/10/08 06:59:11;;;;;;;6.199999;3.2;;;;;;;8.21;100;95223.47;;;;
2019/10/08 07:00:13;;;;;;;6.199999;3.2;;;;;;;8.21;100;95223.47;;;;
2019/10/08 07:01:16;;;;;;;6.199999;3.2;;;;;;;8.21;100;95223.47;;;;
2019/10/08 07:02:17;;;;;;;6.199999;3.2;;;;;;;8.21;100;95223.47;;;;
2019/10/08 07:03:19;;;;;;;5.85;2.85;;;;;;;8.82;100;95240.5;;;;
2019/10/08 07:04:20;;;;;;;5.85;2.85;;;;;;;8.82;100;95240.5;;;;
2019/10/08 07:05:21;;;;;;;5.85;2.85;;;;;;;8.82;100;95240.5;;;;
2019/10/08 07:06:22;;;;;;;5.85;2.85;;;;;;;8.82;100;95240.5;;;;
2019/10/08 07:07:23;;;;;;;5.85;2.85;;;;;;;8.82;100;95240.5;;;;
2019/10/08 07:08:24;;;;;;;5.85;2.85;;;;;;;8.82;100;95240.5;;;;
2019/10/08 07:09:26;;;;;;;5.85;2.85;;;;;;;8.82;100;95240.5;;;;
2019/10/08 07:10:27;;;;;;;5.85;2.85;;;;;;;8.82;100;95240.5;;;;
2019/10/08 07:11:28;;;;;;;5.85;2.85;;;;;;;8.82;100;95240.5;;;;
2019/10/08 07:12:29;;;;;;;5.85;2.85;;;;;;;8.82;100;95240.5;;;;
2019/10/08 07:13:30;;;;;;;4;2.7;;;;;;;9.14;100;95237.52;;;;
2019/10/08 07:14:31;;;;;;;4;2.7;;;;;;;9.14;100;95237.52;;;;
2019/10/08 07:15:33;;;;;;;4;2.7;;;;;;;9.14;100;95237.52;;;;
2019/10/08 07:16:34;;;;;;;4;2.7;;;;;;;9.14;100;95237.52;;;;
2019/10/08 07:17:35;;;;;;;4;2.7;;;;;;;9.14;100;95237.52;;;;
2019/10/08 07:18:36;;;;;;;4;2.7;;;;;;;9.14;100;95237.52;;;;
2019/10/08 07:19:37;;;;;;;4;2.7;;;;;;;9.14;100;95237.52;;;;
2019/10/08 07:20:38;;;;;;;4;2.7;;;;;;;9.14;100;95237.52;;;;
2019/10/08 07:21:39;;;;;;;4;2.7;;;;;;;9.14;100;95237.52;;;;
2019/10/08 07:22:41;;;;;;;4;2.7;;;;;;;9.14;100;95237.52;;;;
2019/10/08 07:23:42;;;;;;;4;2.7;;;;;;;9.14;100;95237.52;;;;
2019/10/08 07:25:21;;;;;;;5.35;2.95;;;;;;;9.6;100;95231.86;;;;
2019/10/08 07:26:41;;;;;;;5.35;2.95;;;;;;;9.6;100;95231.86;;;;
2019/10/08 07:27:43;;;;;;;5.35;2.95;;;;;;;9.6;100;95231.86;;;;
2019/10/08 07:28:44;;;;;;;5.35;2.95;;;;;;;9.6;100;95231.86;;;;
2019/10/08 07:29:45;;;;;;;5.35;2.95;;;;;;;9.6;100;95231.86;;;;
2019/10/08 07:30:46;;;;;;;5.35;2.95;;;;;;;9.6;100;95231.86;;;;
2019/10/08 07:31:47;;;;;;;5.35;2.95;;;;;;;9.6;100;95231.86;;;;
2019/10/08 07:32:49;;;;;;;5.35;2.95;;;;;;;9.6;100;95231.86;;;;
2019/10/08 07:33:50;;;;;;;5.35;2.95;;;;;;;9.6;100;95231.86;;;;
2019/10/08 07:34:51;;;;;;;14.85;3.65;;;;;;;10.18;100;95237.64;;;;
2019/10/08 07:35:52;;;;;;;14.85;3.65;;;;;;;10.18;100;95237.64;;;;
2019/10/08 07:36:53;;;;;;;14.85;3.65;;;;;;;10.18;100;95237.64;;;;
2019/10/08 07:37:54;;;;;;;14.85;3.65;;;;;;;10.18;100;95237.64;;;;
2019/10/08 07:38:56;;;;;;;14.85;3.65;;;;;;;10.18;100;95237.64;;;;
2019/10/08 07:39:57;;;;;;;14.85;3.65;;;;;;;10.18;100;95237.64;;;;
2019/10/08 07:40:58;;;;;;;14.85;3.65;;;;;;;10.18;100;95237.64;;;;
2019/10/08 07:41:59;;;;;;;14.85;3.65;;;;;;;10.18;100;95237.64;;;;